createdAt,value
2023-04-02T00:00:52.636Z,8.95
2023-04-02T00:01:52.677Z,8.94
2023-04-02T00:02:52.680Z,8.94
2023-04-02T00:03:52.706Z,8.93
2023-04-02T00:04:52.580Z,8.93
2023-04-02T00:05:52.606Z,8.92
2023-04-02T00:06:52.558Z,8.92
2023-04-02T00:07:52.595Z,8.91
2023-04-02T00:08:52.584Z,8.91
2023-04-02T00:09:52.549Z,8.90
2023-04-02T00:10:52.583Z,8.89
2023-04-02T00:11:52.519Z,8.88
2023-04-02T00:12:52.512Z,8.87
2023-04-02T00:13:52.523Z,8.86
2023-04-02T00:14:52.494Z,8.84
2023-04-02T00:15:52.503Z,8.83
2023-04-02T00:16:52.549Z,8.81
2023-04-02T00:17:52.508Z,8.80
2023-04-02T00:18:52.445Z,8.78
2023-04-02T00:19:52.476Z,8.77
2023-04-02T00:20:52.462Z,8.76
2023-04-02T00:21:52.445Z,8.75
2023-04-02T00:22:52.422Z,8.73
2023-04-02T00:23:52.393Z,8.72
2023-04-02T00:24:52.385Z,8.70
2023-04-02T00:25:52.366Z,8.68
2023-04-02T00:26:52.373Z,8.66
2023-04-02T00:27:52.342Z,8.64
2023-04-02T00:28:52.362Z,8.61
2023-04-02T00:29:52.303Z,8.58
2023-04-02T00:30:52.297Z,8.55
2023-04-02T00:31:52.313Z,8.53
2023-04-02T00:32:52.333Z,8.51
2023-04-02T00:33:52.279Z,8.49
2023-04-02T00:34:52.257Z,8.48
2023-04-02T00:35:52.315Z,8.47
2023-04-02T00:36:52.231Z,8.46
2023-04-02T00:37:52.206Z,8.46
2023-04-02T00:38:52.243Z,8.45
2023-04-02T00:39:52.184Z,8.45
2023-04-02T00:40:52.186Z,8.45
2023-04-02T00:41:52.186Z,8.44
2023-04-02T00:42:52.195Z,8.43
2023-04-02T00:43:52.161Z,8.42
2023-04-02T00:44:52.136Z,8.42
2023-04-02T00:45:52.164Z,8.41
2023-04-02T00:46:52.113Z,8.41
2023-04-02T00:47:52.216Z,8.41
2023-04-02T00:48:52.139Z,8.40
2023-04-02T00:49:52.086Z,8.39
2023-04-02T00:50:52.067Z,8.37
2023-04-02T00:51:52.077Z,8.36
2023-04-02T00:52:52.068Z,8.34
2023-04-02T00:53:52.112Z,8.32
2023-04-02T00:54:52.024Z,8.31
2023-04-02T00:55:52.018Z,8.29
2023-04-02T00:56:52.044Z,8.28
2023-04-02T00:57:51.999Z,8.27
2023-04-02T00:58:52.017Z,8.26
2023-04-02T00:59:51.995Z,8.24
2023-04-02T01:00:51.986Z,8.23
2023-04-02T01:01:51.995Z,8.22
2023-04-02T01:02:52.076Z,8.21
2023-04-02T01:03:51.974Z,8.20
2023-04-02T01:04:51.915Z,8.18
2023-04-02T01:05:51.931Z,8.17
2023-04-02T01:06:51.891Z,8.16
2023-04-02T01:07:51.882Z,8.14
2023-04-02T01:08:51.911Z,8.13
2023-04-02T01:09:51.857Z,8.11
2023-04-02T01:10:51.855Z,8.09
2023-04-02T01:11:51.879Z,8.08
2023-04-02T01:12:51.827Z,8.07
2023-04-02T01:13:51.829Z,8.06
2023-04-02T01:14:51.857Z,8.04
2023-04-02T01:15:51.820Z,8.03
2023-04-02T01:16:51.810Z,8.02
2023-04-02T01:17:51.791Z,8.01
2023-04-02T01:18:51.812Z,8.00
2023-04-02T01:19:51.762Z,7.99
2023-04-02T01:20:51.775Z,7.99
2023-04-02T01:21:51.732Z,7.98
2023-04-02T01:22:51.718Z,7.97
2023-04-02T01:23:51.731Z,7.95
2023-04-02T01:24:51.707Z,7.94
2023-04-02T01:25:51.676Z,7.92
2023-04-02T01:26:51.680Z,7.91
2023-04-02T01:27:51.679Z,7.90
2023-04-02T01:28:51.675Z,7.88
2023-04-02T01:29:51.668Z,7.87
2023-04-02T01:30:51.642Z,7.86
2023-04-02T01:31:51.629Z,7.85
2023-04-02T01:32:51.619Z,7.84
2023-04-02T01:33:51.616Z,7.83
2023-04-02T01:34:51.572Z,7.82
2023-04-02T01:35:51.592Z,7.81
2023-04-02T01:36:51.554Z,7.80
2023-04-02T01:37:51.552Z,7.79
2023-04-02T01:38:51.567Z,7.78
2023-04-02T01:39:51.548Z,7.77
2023-04-02T01:40:51.545Z,7.76
2023-04-02T01:41:51.510Z,7.75
2023-04-02T01:42:51.509Z,7.73
2023-04-02T01:43:51.510Z,7.72
2023-04-02T01:44:51.485Z,7.71
2023-04-02T01:45:51.486Z,7.69
2023-04-02T01:46:51.562Z,7.68
2023-04-02T01:47:51.573Z,7.67
2023-04-02T01:48:51.477Z,7.65
2023-04-02T01:49:51.427Z,7.64
2023-04-02T01:50:51.432Z,7.63
2023-04-02T01:51:51.388Z,7.62
2023-04-02T01:52:51.386Z,7.60
2023-04-02T01:53:51.393Z,7.59
2023-04-02T01:54:51.371Z,7.57
2023-04-02T01:55:51.344Z,7.56
2023-04-02T01:56:51.389Z,7.55
2023-04-02T01:57:51.331Z,7.55
2023-04-02T01:58:51.331Z,7.54
2023-04-02T01:59:51.300Z,7.54
2023-04-02T02:00:51.313Z,7.53
2023-04-02T02:01:51.327Z,7.53
2023-04-02T02:02:51.311Z,7.52
2023-04-02T02:03:51.299Z,7.52
2023-04-02T02:04:51.257Z,7.51
2023-04-02T02:05:51.244Z,7.50
2023-04-02T02:06:51.246Z,7.49
2023-04-02T02:07:51.256Z,7.47
2023-04-02T02:08:51.255Z,7.46
2023-04-02T02:09:51.240Z,7.45
2023-04-02T02:10:51.198Z,7.43
2023-04-02T02:11:51.252Z,7.42
2023-04-02T02:12:51.178Z,7.40
2023-04-02T02:13:51.165Z,7.39
2023-04-02T02:14:51.196Z,7.37
2023-04-02T02:15:51.131Z,7.36
2023-04-02T02:16:51.128Z,7.35
2023-04-02T02:17:51.194Z,7.34
2023-04-02T02:18:51.101Z,7.33
2023-04-02T02:19:51.094Z,7.32
2023-04-02T02:20:51.119Z,7.31
2023-04-02T02:21:51.073Z,7.30
2023-04-02T02:22:51.085Z,7.28
2023-04-02T02:23:51.092Z,7.27
2023-04-02T02:24:51.068Z,7.25
2023-04-02T02:25:51.034Z,7.24
2023-04-02T02:26:51.083Z,7.23
2023-04-02T02:27:51.008Z,7.22
2023-04-02T02:28:51.023Z,7.20
2023-04-02T02:29:50.990Z,7.19
2023-04-02T02:30:51.004Z,7.18
2023-04-02T02:31:51.013Z,7.17
2023-04-02T02:32:51.009Z,7.16
2023-04-02T02:33:50.958Z,7.15
2023-04-02T02:34:50.937Z,7.14
2023-04-02T02:35:50.973Z,7.14
2023-04-02T02:36:50.951Z,7.13
2023-04-02T02:37:50.906Z,7.12
2023-04-02T02:38:50.882Z,7.11
2023-04-02T02:39:50.906Z,7.11
2023-04-02T02:40:50.893Z,7.10
2023-04-02T02:41:50.862Z,7.09
2023-04-02T02:42:50.910Z,7.08
2023-04-02T02:43:50.890Z,7.07
2023-04-02T02:44:50.857Z,7.07
2023-04-02T02:45:50.909Z,7.07
2023-04-02T02:46:50.831Z,7.06
2023-04-02T02:47:50.841Z,7.06
2023-04-02T02:48:50.902Z,7.05
2023-04-02T02:49:59.134Z,7.05
2023-04-02T02:50:51.446Z,7.04
2023-04-02T02:51:51.264Z,7.03
2023-04-02T02:52:51.122Z,7.02
2023-04-02T02:53:50.852Z,7.01
2023-04-02T02:54:50.806Z,6.99
2023-04-02T02:55:50.790Z,6.98
2023-04-02T02:56:50.764Z,6.97
2023-04-02T02:57:50.701Z,6.97
2023-04-02T02:58:50.698Z,6.96
2023-04-02T02:59:50.904Z,6.96
2023-04-02T03:00:50.760Z,6.95
2023-04-02T03:01:50.830Z,6.95
2023-04-02T03:02:50.809Z,6.95
2023-04-02T03:03:50.918Z,6.95
2023-04-02T03:04:50.636Z,6.95
2023-04-02T03:05:50.708Z,6.95
2023-04-02T03:06:50.679Z,6.95
2023-04-02T03:07:50.653Z,6.95
2023-04-02T03:08:50.678Z,6.95
2023-04-02T03:09:50.639Z,6.95
2023-04-02T03:10:50.592Z,6.94
2023-04-02T03:11:50.684Z,6.94
2023-04-02T03:12:50.576Z,6.92
2023-04-02T03:13:50.638Z,6.91
2023-04-02T03:14:50.590Z,6.90
2023-04-02T03:15:50.579Z,6.88
2023-04-02T03:16:50.608Z,6.86
2023-04-02T03:17:50.604Z,6.84
2023-04-02T03:18:50.503Z,6.82
2023-04-02T03:19:50.573Z,6.81
2023-04-02T03:20:50.505Z,6.79
2023-04-02T03:21:50.591Z,6.77
2023-04-02T03:22:50.478Z,6.76
2023-04-02T03:23:50.457Z,6.74
2023-04-02T03:24:50.444Z,6.72
2023-04-02T03:25:50.462Z,6.71
2023-04-02T03:26:50.483Z,6.70
2023-04-02T03:27:50.473Z,6.68
2023-04-02T03:28:50.400Z,6.67
2023-04-02T03:29:50.471Z,6.66
2023-04-02T03:30:50.389Z,6.64
2023-04-02T03:31:50.406Z,6.63
2023-04-02T03:32:50.400Z,6.62
2023-04-02T03:33:50.404Z,6.62
2023-04-02T03:34:50.358Z,6.62
2023-04-02T03:35:50.387Z,6.61
2023-04-02T03:36:50.424Z,6.61
2023-04-02T03:37:50.350Z,6.60
2023-04-02T03:38:50.328Z,6.59
2023-04-02T03:39:50.288Z,6.58
2023-04-02T03:40:50.311Z,6.57
2023-04-02T03:41:50.256Z,6.56
2023-04-02T03:42:50.275Z,6.55
2023-04-02T03:43:50.218Z,6.54
2023-04-02T03:44:50.231Z,6.52
2023-04-02T03:45:50.227Z,6.51
2023-04-02T03:46:50.304Z,6.49
2023-04-02T03:47:50.270Z,6.48
2023-04-02T03:48:50.197Z,6.48
2023-04-02T03:49:50.186Z,6.47
2023-04-02T03:50:50.214Z,6.47
2023-04-02T03:51:50.150Z,6.47
2023-04-02T03:52:50.230Z,6.47
2023-04-02T03:53:50.144Z,6.47
2023-04-02T03:54:54.066Z,6.47
2023-04-02T03:55:50.205Z,6.47
2023-04-02T03:56:50.212Z,6.48
2023-04-02T03:57:50.117Z,6.48
2023-04-02T03:58:50.096Z,6.47
2023-04-02T03:59:50.087Z,6.47
2023-04-02T04:00:50.121Z,6.46
2023-04-02T04:01:50.078Z,6.46
2023-04-02T04:02:50.065Z,6.45
2023-04-02T04:03:50.082Z,6.44
2023-04-02T04:04:50.045Z,6.43
2023-04-02T04:05:50.113Z,6.42
2023-04-02T04:06:50.007Z,6.40
2023-04-02T04:07:50.017Z,6.38
2023-04-02T04:08:50.014Z,6.37
2023-04-02T04:09:49.961Z,6.36
2023-04-02T04:10:50.049Z,6.35
2023-04-02T04:11:49.971Z,6.35
2023-04-02T04:12:49.965Z,6.34
2023-04-02T04:13:49.929Z,6.34
2023-04-02T04:14:49.995Z,6.33
2023-04-02T04:15:49.911Z,6.32
2023-04-02T04:16:49.956Z,6.30
2023-04-02T04:17:50.407Z,6.29
2023-04-02T04:18:49.862Z,6.28
2023-04-02T04:19:49.863Z,6.27
2023-04-02T04:20:49.834Z,6.27
2023-04-02T04:21:49.841Z,6.26
2023-04-02T04:22:49.885Z,6.25
2023-04-02T04:23:49.835Z,6.24
2023-04-02T04:24:49.793Z,6.23
2023-04-02T04:25:49.785Z,6.22
2023-04-02T04:26:49.833Z,6.21
2023-04-02T04:27:49.826Z,6.19
2023-04-02T04:28:49.761Z,6.19
2023-04-02T04:29:49.723Z,6.18
2023-04-02T04:30:49.732Z,6.17
2023-04-02T04:31:49.858Z,6.15
2023-04-02T04:32:49.745Z,6.14
2023-04-02T04:33:49.818Z,6.13
2023-04-02T04:34:49.721Z,6.11
2023-04-02T04:35:49.681Z,6.10
2023-04-02T04:36:49.666Z,6.09
2023-04-02T04:37:49.690Z,6.08
2023-04-02T04:38:49.677Z,6.08
2023-04-02T04:39:49.643Z,6.07
2023-04-02T04:40:49.644Z,6.06
2023-04-02T04:41:49.627Z,6.05
2023-04-02T04:42:49.605Z,6.05
2023-04-02T04:43:49.616Z,6.04
2023-04-02T04:44:49.602Z,6.03
2023-04-02T04:45:49.626Z,6.03
2023-04-02T04:46:49.553Z,6.02
2023-04-02T04:47:49.796Z,6.01
2023-04-02T04:48:49.611Z,6.00
2023-04-02T04:49:49.576Z,6.00
2023-04-02T04:50:49.713Z,5.99
2023-04-02T04:51:49.556Z,5.98
2023-04-02T04:52:49.606Z,5.97
2023-04-02T04:53:49.551Z,5.96
2023-04-02T04:54:49.496Z,5.95
2023-04-02T04:55:49.503Z,5.95
2023-04-02T04:56:49.567Z,5.94
2023-04-02T04:57:49.500Z,5.93
2023-04-02T04:58:49.445Z,5.92
2023-04-02T04:59:49.425Z,5.90
2023-04-02T05:00:50.115Z,5.89
2023-04-02T05:01:49.444Z,5.88
2023-04-02T05:02:49.470Z,5.87
2023-04-02T05:03:49.407Z,5.86
2023-04-02T05:04:49.506Z,5.85
2023-04-02T05:05:49.383Z,5.85
2023-04-02T05:06:49.370Z,5.84
2023-04-02T05:07:49.379Z,5.84
2023-04-02T05:08:49.390Z,5.84
2023-04-02T05:09:49.308Z,5.84
2023-04-02T05:10:49.389Z,5.83
2023-04-02T05:11:49.319Z,5.83
2023-04-02T05:12:49.350Z,5.82
2023-04-02T05:13:49.291Z,5.82
2023-04-02T05:14:49.300Z,5.81
2023-04-02T05:15:49.338Z,5.80
2023-04-02T05:16:49.234Z,5.79
2023-04-02T05:17:49.281Z,5.78
2023-04-02T05:18:49.231Z,5.77
2023-04-02T05:19:49.231Z,5.76
2023-04-02T05:20:49.340Z,5.75
2023-04-02T05:21:49.233Z,5.74
2023-04-02T05:22:49.199Z,5.74
2023-04-02T05:23:49.193Z,5.73
2023-04-02T05:24:49.150Z,5.73
2023-04-02T05:25:49.157Z,5.72
2023-04-02T05:26:49.166Z,5.71
2023-04-02T05:27:49.132Z,5.70
2023-04-02T05:28:49.118Z,5.69
2023-04-02T05:29:49.098Z,5.69
2023-04-02T05:30:49.215Z,5.68
2023-04-02T05:31:49.148Z,5.67
2023-04-02T05:32:49.122Z,5.67
2023-04-02T05:33:49.068Z,5.66
2023-04-02T05:34:49.047Z,5.65
2023-04-02T05:35:49.155Z,5.64
2023-04-02T05:36:49.079Z,5.64
2023-04-02T05:37:49.045Z,5.63
2023-04-02T05:38:49.045Z,5.63
2023-04-02T05:39:49.011Z,5.63
2023-04-02T05:40:49.059Z,5.63
2023-04-02T05:41:49.016Z,5.63
2023-04-02T05:42:49.006Z,5.62
2023-04-02T05:43:48.960Z,5.62
2023-04-02T05:44:49.033Z,5.62
2023-04-02T05:45:48.980Z,5.62
2023-04-02T05:46:49.020Z,5.62
2023-04-02T05:47:49.032Z,5.62
2023-04-02T05:48:48.931Z,5.61
2023-04-02T05:49:48.870Z,5.61
2023-04-02T05:50:48.935Z,5.61
2023-04-02T05:51:48.860Z,5.60
2023-04-02T05:52:48.889Z,5.60
2023-04-02T05:53:48.927Z,5.59
2023-04-02T05:54:48.920Z,5.59
2023-04-02T05:55:48.858Z,5.58
2023-04-02T05:56:48.850Z,5.58
2023-04-02T05:58:01.244Z,5.57
2023-04-02T05:58:49.850Z,5.56
2023-04-02T05:59:48.794Z,5.56
2023-04-02T06:00:48.878Z,5.55
2023-04-02T06:01:48.792Z,5.55
2023-04-02T06:02:48.845Z,5.55
2023-04-02T06:03:48.753Z,5.55
2023-04-02T06:04:48.769Z,5.55
2023-04-02T06:05:48.740Z,5.55
2023-04-02T06:06:48.688Z,5.54
2023-04-02T06:07:48.713Z,5.54
2023-04-02T06:08:48.676Z,5.54
2023-04-02T06:09:48.700Z,5.53
2023-04-02T06:10:48.699Z,5.52
2023-04-02T06:11:48.671Z,5.52
2023-04-02T06:12:48.649Z,5.51
2023-04-02T06:13:48.711Z,5.50
2023-04-02T06:14:48.639Z,5.50
2023-04-02T06:15:48.602Z,5.50
2023-04-02T06:16:48.656Z,5.50
2023-04-02T06:17:48.712Z,5.50
2023-04-02T06:18:48.609Z,5.51
2023-04-02T06:19:48.574Z,5.51
2023-04-02T06:20:48.666Z,5.52
2023-04-02T06:21:48.604Z,5.52
2023-04-02T06:22:48.527Z,5.52
2023-04-02T06:23:48.510Z,5.53
2023-04-02T06:24:48.522Z,5.53
2023-04-02T06:25:48.520Z,5.54
2023-04-02T06:26:48.549Z,5.55
2023-04-02T06:27:48.529Z,5.55
2023-04-02T06:28:48.562Z,5.55
2023-04-02T06:29:48.496Z,5.56
2023-04-02T06:30:48.535Z,5.56
2023-04-02T06:31:49.545Z,5.57
2023-04-02T06:32:48.835Z,5.59
2023-04-02T06:33:48.438Z,5.60
2023-04-02T06:34:48.397Z,5.62
2023-04-02T06:35:48.417Z,5.63
2023-04-02T06:36:48.452Z,5.65
2023-04-02T06:37:48.384Z,5.66
2023-04-02T06:38:48.377Z,5.67
2023-04-02T06:39:48.369Z,5.68
2023-04-02T06:40:48.352Z,5.69
2023-04-02T06:41:48.329Z,5.69
2023-04-02T06:42:48.362Z,5.69
2023-04-02T06:43:48.329Z,5.69
2023-04-02T06:44:48.306Z,5.69
2023-04-02T06:45:48.326Z,5.69
2023-04-02T06:46:49.927Z,5.69
2023-04-02T06:47:48.364Z,5.69
2023-04-02T06:48:48.301Z,5.69
2023-04-02T06:49:48.357Z,5.68
2023-04-02T06:50:48.244Z,5.68
2023-04-02T06:51:48.285Z,5.68
2023-04-02T06:52:48.247Z,5.67
2023-04-02T06:53:48.220Z,5.67
2023-04-02T06:54:48.322Z,5.66
2023-04-02T06:55:48.204Z,5.65
2023-04-02T06:56:48.273Z,5.64
2023-04-02T06:57:48.178Z,5.63
2023-04-02T06:58:48.210Z,5.62
2023-04-02T06:59:48.135Z,5.62
2023-04-02T07:00:48.204Z,5.61
2023-04-02T07:01:48.149Z,5.61
2023-04-02T07:02:48.167Z,5.62
2023-04-02T07:03:48.201Z,5.63
2023-04-02T07:04:48.157Z,5.65
2023-04-02T07:05:48.083Z,5.66
2023-04-02T07:06:48.126Z,5.68
2023-04-02T07:07:48.076Z,5.68
2023-04-02T07:08:48.061Z,5.69
2023-04-02T07:09:48.003Z,5.69
2023-04-02T07:10:48.079Z,5.69
2023-04-02T07:11:48.278Z,5.70
2023-04-02T07:12:48.005Z,5.71
2023-04-02T07:13:48.092Z,5.72
2023-04-02T07:14:48.016Z,5.74
2023-04-02T07:15:48.006Z,5.74
2023-04-02T07:16:48.004Z,5.75
2023-04-02T07:17:47.992Z,5.75
2023-04-02T07:18:47.955Z,5.76
2023-04-02T07:19:47.967Z,5.76
2023-04-02T07:20:47.942Z,5.76
2023-04-02T07:21:47.902Z,5.76
2023-04-02T07:22:47.877Z,5.76
2023-04-02T07:23:47.910Z,5.76
2023-04-02T07:24:47.914Z,5.76
2023-04-02T07:25:47.855Z,5.76
2023-04-02T07:26:47.884Z,5.77
2023-04-02T07:27:47.838Z,5.77
2023-04-02T07:28:47.810Z,5.78
2023-04-02T07:29:47.829Z,5.77
2023-04-02T07:30:47.806Z,5.77
2023-04-02T07:31:47.868Z,5.77
2023-04-02T07:32:47.911Z,5.76
2023-04-02T07:33:47.756Z,5.75
2023-04-02T07:34:47.812Z,5.74
2023-04-02T07:35:47.763Z,5.73
2023-04-02T07:36:47.742Z,5.72
2023-04-02T07:37:47.781Z,5.72
2023-04-02T07:38:47.735Z,5.72
2023-04-02T07:39:47.762Z,5.73
2023-04-02T07:40:47.826Z,5.73
2023-04-02T07:41:47.696Z,5.74
2023-04-02T07:42:47.688Z,5.75
2023-04-02T07:43:47.663Z,5.76
2023-04-02T07:44:47.666Z,5.77
2023-04-02T07:45:47.701Z,5.78
2023-04-02T07:46:47.681Z,5.80
2023-04-02T07:47:47.678Z,5.81
2023-04-02T07:48:47.629Z,5.83
2023-04-02T07:49:47.639Z,5.84
2023-04-02T07:50:47.572Z,5.84
2023-04-02T07:51:47.577Z,5.84
2023-04-02T07:52:47.669Z,5.84
2023-04-02T07:53:47.565Z,5.84
2023-04-02T07:54:47.580Z,5.83
2023-04-02T07:55:47.543Z,5.81
2023-04-02T07:56:47.571Z,5.80
2023-04-02T07:57:47.540Z,5.78
2023-04-02T07:58:47.550Z,5.77
2023-04-02T07:59:47.551Z,5.75
2023-04-02T08:00:47.512Z,5.74
2023-04-02T08:01:47.535Z,5.73
2023-04-02T08:02:47.468Z,5.73
2023-04-02T08:03:47.511Z,5.71
2023-04-02T08:04:47.440Z,5.70
2023-04-02T08:05:47.503Z,5.69
2023-04-02T08:06:47.443Z,5.67
2023-04-02T08:07:47.427Z,5.65
2023-04-02T08:08:47.397Z,5.63
2023-04-02T08:09:47.426Z,5.62
2023-04-02T08:10:47.356Z,5.61
2023-04-02T08:11:47.367Z,5.60
2023-04-02T08:12:47.372Z,5.58
2023-04-02T08:13:47.366Z,5.57
2023-04-02T08:14:47.422Z,5.56
2023-04-02T08:15:47.343Z,5.54
2023-04-02T08:16:47.320Z,5.52
2023-04-02T08:17:47.323Z,5.51
2023-04-02T08:18:47.287Z,5.50
2023-04-02T08:19:54.730Z,5.48
2023-04-02T08:20:48.302Z,5.47
2023-04-02T08:21:47.254Z,5.47
2023-04-02T08:22:47.262Z,5.46
2023-04-02T08:23:47.242Z,5.46
2023-04-02T08:24:47.229Z,5.45
2023-04-02T08:25:47.279Z,5.45
2023-04-02T08:26:47.206Z,5.45
2023-04-02T08:27:47.182Z,5.45
2023-04-02T08:28:47.182Z,5.45
2023-04-02T08:29:47.166Z,5.45
2023-04-02T08:30:47.231Z,5.45
2023-04-02T08:31:47.409Z,5.46
2023-04-02T08:32:47.227Z,5.47
2023-04-02T08:33:47.155Z,5.48
2023-04-02T08:34:47.118Z,5.48
2023-04-02T08:35:47.144Z,5.48
2023-04-02T08:36:47.077Z,5.48
2023-04-02T08:37:47.097Z,5.48
2023-04-02T08:38:47.132Z,5.48
2023-04-02T08:39:47.105Z,5.48
2023-04-02T08:40:47.056Z,5.48
2023-04-02T08:41:47.160Z,5.48
2023-04-02T08:42:47.161Z,5.49
2023-04-02T08:43:47.089Z,5.50
2023-04-02T08:44:47.068Z,5.51
2023-04-02T08:45:47.075Z,5.52
2023-04-02T08:46:47.014Z,5.53
2023-04-02T08:47:47.046Z,5.53
2023-04-02T08:48:46.961Z,5.54
2023-04-02T08:49:55.018Z,5.55
2023-04-02T08:50:47.097Z,5.55
2023-04-02T08:51:47.380Z,5.56
2023-04-02T08:52:47.089Z,5.57
2023-04-02T08:53:47.275Z,5.57
2023-04-02T08:54:46.886Z,5.57
2023-04-02T08:55:46.882Z,5.57
2023-04-02T08:56:46.935Z,5.56
2023-04-02T08:57:46.856Z,5.56
2023-04-02T08:58:46.862Z,5.55
2023-04-02T08:59:46.873Z,5.54
2023-04-02T09:00:46.827Z,5.53
2023-04-02T09:01:46.920Z,5.52
2023-04-02T09:02:46.886Z,5.51
2023-04-02T09:03:46.817Z,5.50
2023-04-02T09:04:46.832Z,5.49
2023-04-02T09:05:46.777Z,5.48
2023-04-02T09:06:46.812Z,5.47
2023-04-02T09:07:46.759Z,5.47
2023-04-02T09:08:46.742Z,5.46
2023-04-02T09:09:46.750Z,5.46
2023-04-02T09:10:46.724Z,5.45
2023-04-02T09:11:46.733Z,5.45
2023-04-02T09:12:46.749Z,5.45
2023-04-02T09:13:46.693Z,5.44
2023-04-02T09:14:46.738Z,5.44
2023-04-02T09:15:46.738Z,5.44
2023-04-02T09:16:46.639Z,5.44
2023-04-02T09:17:54.225Z,5.44
2023-04-02T09:18:47.719Z,5.44
2023-04-02T09:19:46.614Z,5.45
2023-04-02T09:20:46.614Z,5.46
2023-04-02T09:21:46.628Z,5.47
2023-04-02T09:22:46.642Z,5.48
2023-04-02T09:23:46.591Z,5.49
2023-04-02T09:24:46.645Z,5.50
2023-04-02T09:25:54.073Z,5.51
2023-04-02T09:26:47.554Z,5.52
2023-04-02T09:27:46.596Z,5.54
2023-04-02T09:28:46.513Z,5.55
2023-04-02T09:29:46.518Z,5.57
2023-04-02T09:30:46.542Z,5.58
2023-04-02T09:31:46.556Z,5.59
2023-04-02T09:32:46.602Z,5.60
2023-04-02T09:33:46.503Z,5.60
2023-04-02T09:34:46.466Z,5.60
2023-04-02T09:35:46.477Z,5.60
2023-04-02T09:36:46.442Z,5.60
2023-04-02T09:37:46.426Z,5.60
2023-04-02T09:38:46.428Z,5.59
2023-04-02T09:39:46.444Z,5.59
2023-04-02T09:40:46.402Z,5.59
2023-04-02T09:41:52.843Z,5.58
2023-04-02T09:42:47.460Z,5.58
2023-04-02T09:43:46.394Z,5.58
2023-04-02T09:44:46.381Z,5.57
2023-04-02T09:45:46.378Z,5.57
2023-04-02T09:46:46.358Z,5.57
2023-04-02T09:47:46.353Z,5.57
2023-04-02T09:48:46.379Z,5.57
2023-04-02T09:49:46.359Z,5.57
2023-04-02T09:50:46.313Z,5.58
2023-04-02T09:51:46.343Z,5.59
2023-04-02T09:52:46.271Z,5.59
2023-04-02T09:53:46.260Z,5.60
2023-04-02T09:54:46.279Z,5.60
2023-04-02T09:55:46.223Z,5.60
2023-04-02T09:56:46.270Z,5.61
2023-04-02T09:57:46.205Z,5.61
2023-04-02T09:58:46.235Z,5.61
2023-04-02T09:59:46.196Z,5.61
2023-04-02T10:00:46.511Z,5.62
2023-04-02T10:01:46.240Z,5.63
2023-04-02T10:02:46.201Z,5.63
2023-04-02T10:03:46.223Z,5.64
2023-04-02T10:04:46.223Z,5.64
2023-04-02T10:05:46.369Z,5.65
2023-04-02T10:06:46.138Z,5.64
2023-04-02T10:07:46.105Z,5.64
2023-04-02T10:08:46.113Z,5.64
2023-04-02T10:09:46.068Z,5.63
2023-04-02T10:10:46.096Z,5.63
2023-04-02T10:11:46.866Z,5.62
2023-04-02T10:12:46.057Z,5.62
2023-04-02T10:13:46.051Z,5.62
2023-04-02T10:14:46.071Z,5.63
2023-04-02T10:15:46.008Z,5.62
2023-04-02T10:16:46.085Z,5.63
2023-04-02T10:17:46.078Z,5.63
2023-04-02T10:18:45.986Z,5.63
2023-04-02T10:19:45.944Z,5.64
2023-04-02T10:20:51.235Z,5.64
2023-04-02T10:21:46.978Z,5.64
2023-04-02T10:22:45.954Z,5.64
2023-04-02T10:23:45.967Z,5.64
2023-04-02T10:24:45.909Z,5.63
2023-04-02T10:25:45.897Z,5.63
2023-04-02T10:26:45.946Z,5.62
2023-04-02T10:27:45.911Z,5.61
2023-04-02T10:28:45.876Z,5.61
2023-04-02T10:29:45.913Z,5.60
2023-04-02T10:30:45.911Z,5.60
2023-04-02T10:31:45.853Z,5.59
2023-04-02T10:32:45.919Z,5.59
2023-04-02T10:33:45.826Z,5.58
2023-04-02T10:34:45.823Z,5.58
2023-04-02T10:35:45.849Z,5.57
2023-04-02T10:36:45.813Z,5.56
2023-04-02T10:37:45.815Z,5.55
2023-04-02T10:38:45.841Z,5.54
2023-04-02T10:39:45.784Z,5.54
2023-04-02T10:40:45.767Z,5.53
2023-04-02T10:41:45.790Z,5.53
2023-04-02T10:42:45.767Z,5.53
2023-04-02T10:43:45.720Z,5.53
2023-04-02T10:44:45.908Z,5.53
2023-04-02T10:45:45.710Z,5.53
2023-04-02T10:46:45.756Z,5.54
2023-04-02T10:47:45.760Z,5.54
2023-04-02T10:48:45.753Z,5.53
2023-04-02T10:49:45.658Z,5.53
2023-04-02T10:50:45.663Z,5.53
2023-04-02T10:51:45.681Z,5.53
2023-04-02T10:52:45.707Z,5.53
2023-04-02T10:53:45.619Z,5.54
2023-04-02T10:54:45.600Z,5.54
2023-04-02T10:55:45.643Z,5.55
2023-04-02T10:56:51.012Z,5.56
2023-04-02T10:57:46.580Z,5.57
2023-04-02T10:58:45.592Z,5.57
2023-04-02T10:59:45.621Z,5.58
2023-04-02T11:00:45.538Z,5.59
2023-04-02T11:01:45.549Z,5.59
2023-04-02T11:02:45.586Z,5.60
2023-04-02T11:03:45.697Z,5.60
2023-04-02T11:04:45.503Z,5.61
2023-04-02T11:05:45.495Z,5.61
2023-04-02T11:06:45.468Z,5.61
2023-04-02T11:07:45.484Z,5.61
2023-04-02T11:08:45.476Z,5.61
2023-04-02T11:09:45.505Z,5.62
2023-04-02T11:10:45.430Z,5.63
2023-04-02T11:11:45.407Z,5.63
2023-04-02T11:12:45.452Z,5.63
2023-04-02T11:13:45.395Z,5.64
2023-04-02T11:14:45.379Z,5.64
2023-04-02T11:15:45.475Z,5.65
2023-04-02T11:16:45.390Z,5.65
2023-04-02T11:17:45.363Z,5.66
2023-04-02T11:18:45.389Z,5.67
2023-04-02T11:19:45.386Z,5.67
2023-04-02T11:20:45.337Z,5.68
2023-04-02T11:21:58.069Z,5.68
2023-04-02T11:22:46.292Z,5.69
2023-04-02T11:23:45.279Z,5.69
2023-04-02T11:24:45.372Z,5.70
2023-04-02T11:25:45.293Z,5.70
2023-04-02T11:26:45.272Z,5.71
2023-04-02T11:27:45.273Z,5.72
2023-04-02T11:28:45.263Z,5.73
2023-04-02T11:29:45.258Z,5.74
2023-04-02T11:30:45.269Z,5.74
2023-04-02T11:31:45.262Z,5.75
2023-04-02T11:32:45.249Z,5.75
2023-04-02T11:33:47.315Z,5.75
2023-04-02T11:34:45.232Z,5.76
2023-04-02T11:35:45.185Z,5.76
2023-04-02T11:36:45.162Z,5.77
2023-04-02T11:37:45.289Z,5.78
2023-04-02T11:38:45.203Z,5.79
2023-04-02T11:39:45.116Z,5.80
2023-04-02T11:40:45.204Z,5.81
2023-04-02T11:41:45.167Z,5.82
2023-04-02T11:42:45.094Z,5.83
2023-04-02T11:43:45.090Z,5.84
2023-04-02T11:44:45.164Z,5.85
2023-04-02T11:45:52.785Z,5.86
2023-04-02T11:46:46.117Z,5.86
2023-04-02T11:47:45.074Z,5.87
2023-04-02T11:48:45.055Z,5.88
2023-04-02T11:49:45.033Z,5.89
2023-04-02T11:50:45.013Z,5.90
2023-04-02T11:51:45.025Z,5.91
2023-04-02T11:52:45.072Z,5.91
2023-04-02T11:53:45.032Z,5.92
2023-04-02T11:54:44.978Z,5.93
2023-04-02T11:55:45.023Z,5.93
2023-04-02T11:56:44.953Z,5.94
2023-04-02T11:57:44.950Z,5.95
2023-04-02T11:58:44.936Z,5.95
2023-04-02T11:59:44.918Z,5.96
2023-04-02T12:00:44.900Z,5.97
2023-04-02T12:01:44.926Z,5.98
2023-04-02T12:02:44.982Z,5.98
2023-04-02T12:03:44.938Z,5.98
2023-04-02T12:04:44.862Z,5.99
2023-04-02T12:05:44.970Z,5.99
2023-04-02T12:06:44.860Z,5.99
2023-04-02T12:07:44.850Z,6.00
2023-04-02T12:08:56.627Z,6.00
2023-04-02T12:09:45.874Z,6.00
2023-04-02T12:10:44.799Z,6.00
2023-04-02T12:11:44.781Z,6.00
2023-04-02T12:12:44.756Z,6.00
2023-04-02T12:13:44.803Z,6.00
2023-04-02T12:14:44.737Z,6.00
2023-04-02T12:15:44.757Z,5.99
2023-04-02T12:16:44.729Z,5.99
2023-04-02T12:17:44.766Z,5.99
2023-04-02T12:18:44.728Z,5.99
2023-04-02T12:19:44.699Z,5.99
2023-04-02T12:20:44.695Z,6.00
2023-04-02T12:21:44.664Z,6.00
2023-04-02T12:22:44.652Z,6.01
2023-04-02T12:23:44.656Z,6.01
2023-04-02T12:24:44.653Z,6.02
2023-04-02T12:25:44.672Z,6.03
2023-04-02T12:26:44.688Z,6.04
2023-04-02T12:27:44.572Z,6.05
2023-04-02T12:28:44.714Z,6.06
2023-04-02T12:29:44.591Z,6.07
2023-04-02T12:30:44.596Z,6.07
2023-04-02T12:31:44.552Z,6.08
2023-04-02T12:32:44.893Z,6.09
2023-04-02T12:33:44.524Z,6.10
2023-04-02T12:34:44.565Z,6.11
2023-04-02T12:35:44.519Z,6.12
2023-04-02T12:36:44.548Z,6.13
2023-04-02T12:37:44.498Z,6.14
2023-04-02T12:38:44.589Z,6.16
2023-04-02T12:39:44.461Z,6.17
2023-04-02T12:40:44.438Z,6.19
2023-04-02T12:41:44.545Z,6.20
2023-04-02T12:42:44.429Z,6.22
2023-04-02T12:43:44.446Z,6.23
2023-04-02T12:44:44.467Z,6.24
2023-04-02T12:45:44.415Z,6.25
2023-04-02T12:46:44.425Z,6.26
2023-04-02T12:47:44.409Z,6.26
2023-04-02T12:48:44.361Z,6.26
2023-04-02T12:49:44.398Z,6.27
2023-04-02T12:50:44.440Z,6.26
2023-04-02T12:51:44.379Z,6.26
2023-04-02T12:52:44.336Z,6.26
2023-04-02T12:53:44.315Z,6.26
2023-04-02T12:54:44.378Z,6.26
2023-04-02T12:55:44.287Z,6.26
2023-04-02T12:56:44.301Z,6.25
2023-04-02T12:57:44.303Z,6.25
2023-04-02T12:58:44.271Z,6.25
2023-04-02T12:59:44.294Z,6.25
2023-04-02T13:00:44.244Z,6.25
2023-04-02T13:01:44.237Z,6.25
2023-04-02T13:02:44.248Z,6.26
2023-04-02T13:03:44.240Z,6.26
2023-04-02T13:04:44.227Z,6.26
2023-04-02T13:05:44.238Z,6.27
2023-04-02T13:06:44.181Z,6.27
2023-04-02T13:07:44.216Z,6.28
2023-04-02T13:08:44.206Z,6.29
2023-04-02T13:09:44.158Z,6.30
2023-04-02T13:10:44.154Z,6.31
2023-04-02T13:11:44.161Z,6.32
2023-04-02T13:12:44.256Z,6.33
2023-04-02T13:13:44.106Z,6.34
2023-04-02T13:14:44.108Z,6.35
2023-04-02T13:15:44.183Z,6.36
2023-04-02T13:16:44.087Z,6.37
2023-04-02T13:17:44.111Z,6.39
2023-04-02T13:18:44.093Z,6.40